<?xml version="1.0" encoding="UTF-8" standalone="no" ?>
<gpx xmlns="http://www.topografix.com/GPX/1/1" xmlns:xsi="http://www.w3.org/2001/XMLSchema-instance" xsi:schemaLocation="http://www.topografix.com/GPX/1/1 http://www.topografix.com/GPX/1/1/gpx.xsd" version="1.1" creator="VisuGPX - https://www.visugpx.com">
  <metadata>
    <name>Balades et randos - Ecurie AMOEDO</name>
  </metadata>
  <trk>
    <name><![CDATA[La loire]]></name>
    <trkseg>
      <trkpt lat="47.33144" lon="0.46916">
        <ele>41</ele>
        <time>2000-01-01T11:00:00Z</time>
      </trkpt>
      <trkpt lat="47.33192" lon="0.46868">
        <ele>42</ele>
        <time>2000-01-01T11:00:29Z</time>
      </trkpt>
      <trkpt lat="47.33219" lon="0.4684">
        <ele>41</ele>
        <time>2000-01-01T11:00:46Z</time>
      </trkpt>
      <trkpt lat="47.33242" lon="0.46817">
        <ele>41</ele>
        <time>2000-01-01T11:00:59Z</time>
      </trkpt>
      <trkpt lat="47.33245" lon="0.46776">
        <ele>42</ele>
        <time>2000-01-01T11:01:14Z</time>
      </trkpt>
      <trkpt lat="47.33227" lon="0.46754">
        <ele>42</ele>
        <time>2000-01-01T11:01:25Z</time>
      </trkpt>
      <trkpt lat="47.33179" lon="0.46668">
        <ele>41</ele>
        <time>2000-01-01T11:02:03Z</time>
      </trkpt>
      <trkpt lat="47.33162" lon="0.46631">
        <ele>41</ele>
        <time>2000-01-01T11:02:18Z</time>
      </trkpt>
      <trkpt lat="47.3315" lon="0.46591">
        <ele>41</ele>
        <time>2000-01-01T11:02:33Z</time>
      </trkpt>
      <trkpt lat="47.33115" lon="0.46542">
        <ele>41</ele>
        <time>2000-01-01T11:02:57Z</time>
      </trkpt>
      <trkpt lat="47.33102" lon="0.46525">
        <ele>41</ele>
        <time>2000-01-01T11:03:06Z</time>
      </trkpt>
      <trkpt lat="47.33033" lon="0.46458">
        <ele>42</ele>
        <time>2000-01-01T11:03:48Z</time>
      </trkpt>
      <trkpt lat="47.32996" lon="0.46401">
        <ele>43</ele>
        <time>2000-01-01T11:04:14Z</time>
      </trkpt>
      <trkpt lat="47.3298" lon="0.46374">
        <ele>42</ele>
        <time>2000-01-01T11:04:26Z</time>
      </trkpt>
      <trkpt lat="47.32962" lon="0.46328">
        <ele>41</ele>
        <time>2000-01-01T11:04:45Z</time>
      </trkpt>
      <trkpt lat="47.32949" lon="0.46299">
        <ele>41</ele>
        <time>2000-01-01T11:04:56Z</time>
      </trkpt>
      <trkpt lat="47.32923" lon="0.46253">
        <ele>41</ele>
        <time>2000-01-01T11:05:17Z</time>
      </trkpt>
      <trkpt lat="47.32886" lon="0.46198">
        <ele>40</ele>
        <time>2000-01-01T11:05:43Z</time>
      </trkpt>
      <trkpt lat="47.32827" lon="0.46107">
        <ele>40</ele>
        <time>2000-01-01T11:06:26Z</time>
      </trkpt>
      <trkpt lat="47.32818" lon="0.46097">
        <ele>40</ele>
        <time>2000-01-01T11:06:31Z</time>
      </trkpt>
      <trkpt lat="47.32794" lon="0.4606">
        <ele>40</ele>
        <time>2000-01-01T11:06:49Z</time>
      </trkpt>
      <trkpt lat="47.32771" lon="0.4604">
        <ele>41</ele>
        <time>2000-01-01T11:07:02Z</time>
      </trkpt>
      <trkpt lat="47.32749" lon="0.46024">
        <ele>41</ele>
        <time>2000-01-01T11:07:15Z</time>
      </trkpt>
      <trkpt lat="47.32726" lon="0.46021">
        <ele>41</ele>
        <time>2000-01-01T11:07:26Z</time>
      </trkpt>
      <trkpt lat="47.327" lon="0.46013">
        <ele>41</ele>
        <time>2000-01-01T11:07:39Z</time>
      </trkpt>
      <trkpt lat="47.32663" lon="0.45962">
        <ele>41</ele>
        <time>2000-01-01T11:08:05Z</time>
      </trkpt>
      <trkpt lat="47.32603" lon="0.45861">
        <ele>41</ele>
        <time>2000-01-01T11:08:50Z</time>
      </trkpt>
      <trkpt lat="47.32553" lon="0.45781">
        <ele>41</ele>
        <time>2000-01-01T11:09:27Z</time>
      </trkpt>
      <trkpt lat="47.32507" lon="0.45685">
        <ele>41</ele>
        <time>2000-01-01T11:10:07Z</time>
      </trkpt>
      <trkpt lat="47.32479" lon="0.45586">
        <ele>42</ele>
        <time>2000-01-01T11:10:44Z</time>
      </trkpt>
      <trkpt lat="47.32456" lon="0.45491">
        <ele>41</ele>
        <time>2000-01-01T11:11:18Z</time>
      </trkpt>
      <trkpt lat="47.32428" lon="0.45374">
        <ele>40</ele>
        <time>2000-01-01T11:12:00Z</time>
      </trkpt>
      <trkpt lat="47.32433" lon="0.4536">
        <ele>40</ele>
        <time>2000-01-01T11:12:06Z</time>
      </trkpt>
      <trkpt lat="47.32429" lon="0.45332">
        <ele>39</ele>
        <time>2000-01-01T11:12:15Z</time>
      </trkpt>
      <trkpt lat="47.32429" lon="0.45312">
        <ele>39</ele>
        <time>2000-01-01T11:12:22Z</time>
      </trkpt>
      <trkpt lat="47.32427" lon="0.45296">
        <ele>39</ele>
        <time>2000-01-01T11:12:28Z</time>
      </trkpt>
      <trkpt lat="47.32347" lon="0.44997">
        <ele>39</ele>
        <time>2000-01-01T11:14:17Z</time>
      </trkpt>
      <trkpt lat="47.32294" lon="0.44799">
        <ele>39</ele>
        <time>2000-01-01T11:15:29Z</time>
      </trkpt>
      <trkpt lat="47.32259" lon="0.44667">
        <ele>37</ele>
        <time>2000-01-01T11:16:18Z</time>
      </trkpt>
      <trkpt lat="47.32243" lon="0.44616">
        <ele>37</ele>
        <time>2000-01-01T11:16:37Z</time>
      </trkpt>
      <trkpt lat="47.32237" lon="0.44584">
        <ele>36</ele>
        <time>2000-01-01T11:16:48Z</time>
      </trkpt>
      <trkpt lat="47.32232" lon="0.44533">
        <ele>39</ele>
        <time>2000-01-01T11:17:05Z</time>
      </trkpt>
      <trkpt lat="47.32231" lon="0.44471">
        <ele>40</ele>
        <time>2000-01-01T11:17:27Z</time>
      </trkpt>
      <trkpt lat="47.32221" lon="0.44404">
        <ele>40</ele>
        <time>2000-01-01T11:17:50Z</time>
      </trkpt>
      <trkpt lat="47.32212" lon="0.44361">
        <ele>40</ele>
        <time>2000-01-01T11:18:05Z</time>
      </trkpt>
      <trkpt lat="47.32202" lon="0.44299">
        <ele>39</ele>
        <time>2000-01-01T11:18:27Z</time>
      </trkpt>
      <trkpt lat="47.32195" lon="0.44266">
        <ele>39</ele>
        <time>2000-01-01T11:18:38Z</time>
      </trkpt>
      <trkpt lat="47.3216" lon="0.44152">
        <ele>38</ele>
        <time>2000-01-01T11:19:21Z</time>
      </trkpt>
      <trkpt lat="47.32129" lon="0.44059">
        <ele>39</ele>
        <time>2000-01-01T11:19:56Z</time>
      </trkpt>
      <trkpt lat="47.32096" lon="0.43957">
        <ele>39</ele>
        <time>2000-01-01T11:20:35Z</time>
      </trkpt>
      <trkpt lat="47.32091" lon="0.4395">
        <ele>39</ele>
        <time>2000-01-01T11:20:38Z</time>
      </trkpt>
      <trkpt lat="47.32089" lon="0.44005">
        <ele>41</ele>
        <time>2000-01-01T11:20:57Z</time>
      </trkpt>
      <trkpt lat="47.32161" lon="0.44256">
        <ele>41</ele>
        <time>2000-01-01T11:22:30Z</time>
      </trkpt>
      <trkpt lat="47.32122" lon="0.44289">
        <ele>40</ele>
        <time>2000-01-01T11:22:53Z</time>
      </trkpt>
      <trkpt lat="47.32092" lon="0.44362">
        <ele>40</ele>
        <time>2000-01-01T11:23:22Z</time>
      </trkpt>
      <trkpt lat="47.31985" lon="0.44428">
        <ele>37</ele>
        <time>2000-01-01T11:24:19Z</time>
      </trkpt>
      <trkpt lat="47.3207" lon="0.44812">
        <ele>38</ele>
        <time>2000-01-01T11:26:37Z</time>
      </trkpt>
      <trkpt lat="47.32184" lon="0.45241">
        <ele>40</ele>
        <time>2000-01-01T11:29:14Z</time>
      </trkpt>
      <trkpt lat="47.32265" lon="0.45507">
        <ele>45</ele>
        <time>2000-01-01T11:30:53Z</time>
      </trkpt>
      <trkpt lat="47.32358" lon="0.45782">
        <ele>44</ele>
        <time>2000-01-01T11:32:37Z</time>
      </trkpt>
      <trkpt lat="47.32684" lon="0.46241">
        <ele>38</ele>
        <time>2000-01-01T11:36:23Z</time>
      </trkpt>
      <trkpt lat="47.3278" lon="0.46374">
        <ele>39</ele>
        <time>2000-01-01T11:37:29Z</time>
      </trkpt>
      <trkpt lat="47.32724" lon="0.46444">
        <ele>39</ele>
        <time>2000-01-01T11:38:06Z</time>
      </trkpt>
      <trkpt lat="47.32743" lon="0.46495">
        <ele>39</ele>
        <time>2000-01-01T11:38:25Z</time>
      </trkpt>
      <trkpt lat="47.32759" lon="0.46537">
        <ele>38</ele>
        <time>2000-01-01T11:38:42Z</time>
      </trkpt>
      <trkpt lat="47.32799" lon="0.46565">
        <ele>38</ele>
        <time>2000-01-01T11:39:04Z</time>
      </trkpt>
      <trkpt lat="47.32812" lon="0.46573">
        <ele>38</ele>
        <time>2000-01-01T11:39:11Z</time>
      </trkpt>
      <trkpt lat="47.32851" lon="0.46611">
        <ele>39</ele>
        <time>2000-01-01T11:39:34Z</time>
      </trkpt>
      <trkpt lat="47.329" lon="0.46678">
        <ele>40</ele>
        <time>2000-01-01T11:40:08Z</time>
      </trkpt>
      <trkpt lat="47.32902" lon="0.46706">
        <ele>40</ele>
        <time>2000-01-01T11:40:18Z</time>
      </trkpt>
      <trkpt lat="47.32872" lon="0.46814">
        <ele>40</ele>
        <time>2000-01-01T11:40:57Z</time>
      </trkpt>
      <trkpt lat="47.32838" lon="0.46915">
        <ele>40</ele>
        <time>2000-01-01T11:41:35Z</time>
      </trkpt>
      <trkpt lat="47.32969" lon="0.46993">
        <ele>39</ele>
        <time>2000-01-01T11:42:47Z</time>
      </trkpt>
      <trkpt lat="47.32977" lon="0.47002">
        <ele>39</ele>
        <time>2000-01-01T11:42:51Z</time>
      </trkpt>
      <trkpt lat="47.33077" lon="0.46959">
        <ele>38</ele>
        <time>2000-01-01T11:43:43Z</time>
      </trkpt>
      <trkpt lat="47.33136" lon="0.46919">
        <ele>40</ele>
        <time>2000-01-01T11:44:16Z</time>
      </trkpt>
    </trkseg>
  </trk>
</gpx>